sensor_id;sensor_type;location;lat;lon;timestamp;P1;durP1;ratioP1;P2;durP2;ratioP2
15482;SDS011;7843;50.330;7.312;2022-12-07T00:01:45;12.23;;;5.32;;
15482;SDS011;7843;50.330;7.312;2022-12-07T00:04:13;11.50;;;5.18;;
15482;SDS011;7843;50.330;7.312;2022-12-07T00:06:42;9.50;;;4.85;;
15482;SDS011;7843;50.330;7.312;2022-12-07T00:09:11;7.13;;;4.03;;
15482;SDS011;7843;50.330;7.312;2022-12-07T00:11:42;10.30;;;5.05;;
15482;SDS011;7843;50.330;7.312;2022-12-07T00:14:13;8.95;;;4.75;;
15482;SDS011;7843;50.330;7.312;2022-12-07T00:16:41;8.23;;;4.60;;
15482;SDS011;7843;50.330;7.312;2022-12-07T00:19:09;11.18;;;4.68;;
15482;SDS011;7843;50.330;7.312;2022-12-07T00:21:38;9.30;;;4.90;;
15482;SDS011;7843;50.330;7.312;2022-12-07T00:24:05;9.03;;;5.27;;
15482;SDS011;7843;50.330;7.312;2022-12-07T00:26:34;9.10;;;5.07;;
15482;SDS011;7843;50.330;7.312;2022-12-07T00:29:20;9.83;;;5.20;;
15482;SDS011;7843;50.330;7.312;2022-12-07T00:31:48;10.45;;;5.60;;
15482;SDS011;7843;50.330;7.312;2022-12-07T00:34:16;13.73;;;6.18;;
15482;SDS011;7843;50.330;7.312;2022-12-07T00:36:44;10.32;;;5.53;;
15482;SDS011;7843;50.330;7.312;2022-12-07T00:39:11;10.73;;;5.72;;
15482;SDS011;7843;50.330;7.312;2022-12-07T00:41:38;10.80;;;5.68;;
15482;SDS011;7843;50.330;7.312;2022-12-07T00:44:05;9.68;;;5.80;;
15482;SDS011;7843;50.330;7.312;2022-12-07T00:46:31;10.60;;;5.05;;
15482;SDS011;7843;50.330;7.312;2022-12-07T00:48:58;11.88;;;6.15;;
15482;SDS011;7843;50.330;7.312;2022-12-07T00:51:25;10.05;;;5.72;;
15482;SDS011;7843;50.330;7.312;2022-12-07T00:53:52;10.63;;;5.80;;
15482;SDS011;7843;50.330;7.312;2022-12-07T00:58:54;9.85;;;5.32;;
15482;SDS011;7843;50.330;7.312;2022-12-07T01:01:26;11.23;;;5.80;;
15482;SDS011;7843;50.330;7.312;2022-12-07T01:03:55;11.60;;;6.55;;
15482;SDS011;7843;50.330;7.312;2022-12-07T01:06:22;10.80;;;5.35;;
15482;SDS011;7843;50.330;7.312;2022-12-07T01:08:50;11.82;;;6.22;;
15482;SDS011;7843;50.330;7.312;2022-12-07T01:11:18;10.98;;;6.15;;
15482;SDS011;7843;50.330;7.312;2022-12-07T01:13:47;13.07;;;6.38;;
15482;SDS011;7843;50.330;7.312;2022-12-07T01:16:16;15.00;;;6.88;;
15482;SDS011;7843;50.330;7.312;2022-12-07T01:18:45;11.90;;;6.38;;
15482;SDS011;7843;50.330;7.312;2022-12-07T01:21:15;10.48;;;6.22;;
15482;SDS011;7843;50.330;7.312;2022-12-07T01:23:44;11.27;;;5.90;;
15482;SDS011;7843;50.330;7.312;2022-12-07T01:26:11;11.10;;;5.53;;
15482;SDS011;7843;50.330;7.312;2022-12-07T01:28:40;12.38;;;6.20;;
15482;SDS011;7843;50.330;7.312;2022-12-07T01:31:08;10.82;;;6.50;;
15482;SDS011;7843;50.330;7.312;2022-12-07T01:33:41;11.50;;;6.20;;
15482;SDS011;7843;50.330;7.312;2022-12-07T01:36:14;10.45;;;5.40;;
15482;SDS011;7843;50.330;7.312;2022-12-07T01:38:41;10.70;;;6.20;;
15482;SDS011;7843;50.330;7.312;2022-12-07T01:41:09;10.07;;;5.65;;
15482;SDS011;7843;50.330;7.312;2022-12-07T01:43:36;11.20;;;4.97;;
15482;SDS011;7843;50.330;7.312;2022-12-07T01:46:03;11.18;;;6.13;;
15482;SDS011;7843;50.330;7.312;2022-12-07T01:48:34;13.02;;;5.00;;
15482;SDS011;7843;50.330;7.312;2022-12-07T01:51:08;9.17;;;4.97;;
15482;SDS011;7843;50.330;7.312;2022-12-07T01:53:37;10.10;;;5.80;;
15482;SDS011;7843;50.330;7.312;2022-12-07T01:56:08;9.27;;;5.20;;
15482;SDS011;7843;50.330;7.312;2022-12-07T01:58:40;9.63;;;5.00;;
15482;SDS011;7843;50.330;7.312;2022-12-07T02:01:07;9.13;;;4.93;;
15482;SDS011;7843;50.330;7.312;2022-12-07T02:03:38;10.20;;;5.10;;
15482;SDS011;7843;50.330;7.312;2022-12-07T02:06:07;9.70;;;5.47;;
15482;SDS011;7843;50.330;7.312;2022-12-07T02:08:34;7.20;;;5.18;;
15482;SDS011;7843;50.330;7.312;2022-12-07T02:11:01;9.20;;;4.93;;
15482;SDS011;7843;50.330;7.312;2022-12-07T02:13:30;10.35;;;5.10;;
15482;SDS011;7843;50.330;7.312;2022-12-07T02:24:34;10.55;;;4.50;;
15482;SDS011;7843;50.330;7.312;2022-12-07T02:35:18;6.70;;;3.97;;
15482;SDS011;7843;50.330;7.312;2022-12-07T02:37:55;6.03;;;3.70;;
15482;SDS011;7843;50.330;7.312;2022-12-07T02:43:40;8.10;;;4.67;;
15482;SDS011;7843;50.330;7.312;2022-12-07T02:46:12;7.78;;;4.43;;
15482;SDS011;7843;50.330;7.312;2022-12-07T02:48:42;7.60;;;3.97;;
15482;SDS011;7843;50.330;7.312;2022-12-07T02:51:10;6.25;;;4.13;;
15482;SDS011;7843;50.330;7.312;2022-12-07T02:53:38;7.10;;;3.97;;
15482;SDS011;7843;50.330;7.312;2022-12-07T02:58:57;6.63;;;3.67;;
15482;SDS011;7843;50.330;7.312;2022-12-07T03:01:41;6.13;;;3.40;;
15482;SDS011;7843;50.330;7.312;2022-12-07T03:06:49;5.70;;;3.42;;
15482;SDS011;7843;50.330;7.312;2022-12-07T03:09:45;7.27;;;3.87;;
15482;SDS011;7843;50.330;7.312;2022-12-07T03:12:21;5.22;;;3.33;;
15482;SDS011;7843;50.330;7.312;2022-12-07T03:15:00;3.92;;;2.80;;
15482;SDS011;7843;50.330;7.312;2022-12-07T03:17:37;6.32;;;3.50;;
15482;SDS011;7843;50.330;7.312;2022-12-07T03:20:07;5.65;;;3.17;;
15482;SDS011;7843;50.330;7.312;2022-12-07T03:22:38;5.18;;;3.00;;
15482;SDS011;7843;50.330;7.312;2022-12-07T03:25:08;4.33;;;2.93;;
15482;SDS011;7843;50.330;7.312;2022-12-07T03:27:41;6.18;;;3.60;;
15482;SDS011;7843;50.330;7.312;2022-12-07T03:30:23;6.13;;;3.20;;
15482;SDS011;7843;50.330;7.312;2022-12-07T03:33:06;4.50;;;3.17;;
15482;SDS011;7843;50.330;7.312;2022-12-07T03:35:39;5.05;;;3.25;;
15482;SDS011;7843;50.330;7.312;2022-12-07T03:38:14;7.30;;;3.53;;
15482;SDS011;7843;50.330;7.312;2022-12-07T03:40:47;6.28;;;3.67;;
15482;SDS011;7843;50.330;7.312;2022-12-07T03:43:19;4.68;;;3.15;;
15482;SDS011;7843;50.330;7.312;2022-12-07T03:46:06;4.95;;;2.88;;
15482;SDS011;7843;50.330;7.312;2022-12-07T03:48:41;6.90;;;3.53;;
15482;SDS011;7843;50.330;7.312;2022-12-07T03:51:20;5.13;;;2.87;;
15482;SDS011;7843;50.330;7.312;2022-12-07T03:56:52;4.85;;;3.00;;
15482;SDS011;7843;50.330;7.312;2022-12-07T03:59:20;5.47;;;3.30;;
15482;SDS011;7843;50.330;7.312;2022-12-07T04:01:52;4.63;;;3.03;;
15482;SDS011;7843;50.330;7.312;2022-12-07T04:04:21;6.53;;;3.50;;
15482;SDS011;7843;50.330;7.312;2022-12-07T04:06:49;5.05;;;3.20;;
15482;SDS011;7843;50.330;7.312;2022-12-07T04:09:15;6.03;;;3.10;;
15482;SDS011;7843;50.330;7.312;2022-12-07T04:11:43;4.67;;;2.90;;
15482;SDS011;7843;50.330;7.312;2022-12-07T04:14:10;4.47;;;3.40;;
15482;SDS011;7843;50.330;7.312;2022-12-07T04:16:46;4.07;;;2.47;;
15482;SDS011;7843;50.330;7.312;2022-12-07T04:19:23;4.83;;;2.87;;
15482;SDS011;7843;50.330;7.312;2022-12-07T04:21:51;5.55;;;3.40;;
15482;SDS011;7843;50.330;7.312;2022-12-07T04:24:18;5.78;;;3.78;;
15482;SDS011;7843;50.330;7.312;2022-12-07T04:26:46;4.67;;;3.47;;
15482;SDS011;7843;50.330;7.312;2022-12-07T04:29:13;8.60;;;3.45;;
15482;SDS011;7843;50.330;7.312;2022-12-07T04:31:40;4.10;;;2.72;;
15482;SDS011;7843;50.330;7.312;2022-12-07T04:34:07;6.00;;;3.53;;
15482;SDS011;7843;50.330;7.312;2022-12-07T04:36:34;4.95;;;3.15;;
15482;SDS011;7843;50.330;7.312;2022-12-07T04:39:01;5.43;;;3.15;;
15482;SDS011;7843;50.330;7.312;2022-12-07T04:41:28;6.10;;;3.92;;
15482;SDS011;7843;50.330;7.312;2022-12-07T04:43:55;5.72;;;3.33;;
15482;SDS011;7843;50.330;7.312;2022-12-07T04:46:24;5.13;;;3.50;;
15482;SDS011;7843;50.330;7.312;2022-12-07T04:48:51;5.75;;;3.55;;
15482;SDS011;7843;50.330;7.312;2022-12-07T04:51:20;7.82;;;4.18;;
15482;SDS011;7843;50.330;7.312;2022-12-07T04:53:49;5.28;;;3.30;;
15482;SDS011;7843;50.330;7.312;2022-12-07T04:56:16;6.57;;;3.97;;
15482;SDS011;7843;50.330;7.312;2022-12-07T04:58:44;6.03;;;3.13;;
15482;SDS011;7843;50.330;7.312;2022-12-07T05:01:12;6.57;;;3.63;;
15482;SDS011;7843;50.330;7.312;2022-12-07T05:03:39;5.97;;;4.22;;
15482;SDS011;7843;50.330;7.312;2022-12-07T05:06:06;5.50;;;3.80;;
15482;SDS011;7843;50.330;7.312;2022-12-07T05:08:38;5.47;;;3.75;;
15482;SDS011;7843;50.330;7.312;2022-12-07T05:11:05;5.93;;;3.60;;
15482;SDS011;7843;50.330;7.312;2022-12-07T05:13:33;7.73;;;3.87;;
15482;SDS011;7843;50.330;7.312;2022-12-07T05:16:00;6.47;;;4.07;;
15482;SDS011;7843;50.330;7.312;2022-12-07T05:18:26;6.38;;;3.40;;
15482;SDS011;7843;50.330;7.312;2022-12-07T05:20:53;6.25;;;3.70;;
15482;SDS011;7843;50.330;7.312;2022-12-07T05:23:20;5.95;;;3.65;;
15482;SDS011;7843;50.330;7.312;2022-12-07T05:25:46;5.95;;;3.60;;
15482;SDS011;7843;50.330;7.312;2022-12-07T05:28:13;8.03;;;3.90;;
15482;SDS011;7843;50.330;7.312;2022-12-07T05:30:40;5.93;;;3.47;;
15482;SDS011;7843;50.330;7.312;2022-12-07T05:33:06;6.65;;;4.10;;
15482;SDS011;7843;50.330;7.312;2022-12-07T05:35:33;5.35;;;3.53;;
15482;SDS011;7843;50.330;7.312;2022-12-07T05:38:00;6.00;;;3.40;;
15482;SDS011;7843;50.330;7.312;2022-12-07T05:40:26;7.95;;;3.88;;
15482;SDS011;7843;50.330;7.312;2022-12-07T05:42:57;4.72;;;3.20;;
15482;SDS011;7843;50.330;7.312;2022-12-07T05:45:26;5.80;;;3.70;;
15482;SDS011;7843;50.330;7.312;2022-12-07T05:47:53;5.30;;;3.72;;
15482;SDS011;7843;50.330;7.312;2022-12-07T05:50:19;5.93;;;3.70;;
15482;SDS011;7843;50.330;7.312;2022-12-07T05:52:46;5.03;;;3.00;;
15482;SDS011;7843;50.330;7.312;2022-12-07T05:55:13;4.20;;;2.95;;
15482;SDS011;7843;50.330;7.312;2022-12-07T05:57:39;5.22;;;3.42;;
15482;SDS011;7843;50.330;7.312;2022-12-07T06:00:26;6.23;;;3.20;;
15482;SDS011;7843;50.330;7.312;2022-12-07T06:02:52;6.45;;;4.22;;
15482;SDS011;7843;50.330;7.312;2022-12-07T06:05:19;6.13;;;3.47;;
15482;SDS011;7843;50.330;7.312;2022-12-07T06:07:46;6.82;;;3.38;;
15482;SDS011;7843;50.330;7.312;2022-12-07T06:10:12;4.93;;;3.17;;
15482;SDS011;7843;50.330;7.312;2022-12-07T06:12:39;5.63;;;3.28;;
15482;SDS011;7843;50.330;7.312;2022-12-07T06:15:09;5.15;;;3.13;;
15482;SDS011;7843;50.330;7.312;2022-12-07T06:17:36;5.43;;;3.30;;
15482;SDS011;7843;50.330;7.312;2022-12-07T06:20:03;5.40;;;3.10;;
15482;SDS011;7843;50.330;7.312;2022-12-07T06:22:30;4.97;;;3.38;;
15482;SDS011;7843;50.330;7.312;2022-12-07T06:24:57;5.25;;;3.10;;
15482;SDS011;7843;50.330;7.312;2022-12-07T06:27:23;6.05;;;3.78;;
15482;SDS011;7843;50.330;7.312;2022-12-07T06:29:50;4.60;;;3.05;;
15482;SDS011;7843;50.330;7.312;2022-12-07T06:32:17;5.63;;;3.08;;
15482;SDS011;7843;50.330;7.312;2022-12-07T06:34:43;3.93;;;2.93;;
15482;SDS011;7843;50.330;7.312;2022-12-07T06:37:10;5.43;;;3.10;;
15482;SDS011;7843;50.330;7.312;2022-12-07T06:39:37;4.95;;;3.30;;
15482;SDS011;7843;50.330;7.312;2022-12-07T06:42:04;7.25;;;3.50;;
15482;SDS011;7843;50.330;7.312;2022-12-07T06:44:31;4.72;;;3.00;;
15482;SDS011;7843;50.330;7.312;2022-12-07T06:46:58;4.82;;;3.03;;
15482;SDS011;7843;50.330;7.312;2022-12-07T06:49:37;13.23;;;3.13;;
15482;SDS011;7843;50.330;7.312;2022-12-07T06:52:04;4.90;;;3.47;;
15482;SDS011;7843;50.330;7.312;2022-12-07T06:54:31;4.82;;;3.50;;
15482;SDS011;7843;50.330;7.312;2022-12-07T06:56:58;6.90;;;3.57;;
15482;SDS011;7843;50.330;7.312;2022-12-07T06:59:25;10.73;;;5.07;;
15482;SDS011;7843;50.330;7.312;2022-12-07T07:01:51;5.75;;;3.92;;
15482;SDS011;7843;50.330;7.312;2022-12-07T07:04:18;5.50;;;3.45;;
15482;SDS011;7843;50.330;7.312;2022-12-07T07:06:44;5.25;;;3.60;;
15482;SDS011;7843;50.330;7.312;2022-12-07T07:09:12;5.03;;;3.10;;
15482;SDS011;7843;50.330;7.312;2022-12-07T07:11:38;3.97;;;2.63;;
15482;SDS011;7843;50.330;7.312;2022-12-07T07:14:05;3.90;;;2.83;;
15482;SDS011;7843;50.330;7.312;2022-12-07T07:16:32;4.10;;;2.53;;
15482;SDS011;7843;50.330;7.312;2022-12-07T07:18:58;4.22;;;2.60;;
15482;SDS011;7843;50.330;7.312;2022-12-07T07:21:25;4.45;;;2.80;;
15482;SDS011;7843;50.330;7.312;2022-12-07T07:23:52;5.50;;;2.17;;
15482;SDS011;7843;50.330;7.312;2022-12-07T07:26:18;6.05;;;3.00;;
15482;SDS011;7843;50.330;7.312;2022-12-07T07:28:48;3.92;;;2.47;;
15482;SDS011;7843;50.330;7.312;2022-12-07T07:31:14;5.00;;;2.45;;
15482;SDS011;7843;50.330;7.312;2022-12-07T07:33:41;4.43;;;2.53;;
15482;SDS011;7843;50.330;7.312;2022-12-07T07:36:08;3.47;;;2.53;;
15482;SDS011;7843;50.330;7.312;2022-12-07T07:38:35;3.88;;;2.40;;
15482;SDS011;7843;50.330;7.312;2022-12-07T07:41:01;5.03;;;2.53;;
15482;SDS011;7843;50.330;7.312;2022-12-07T07:43:28;4.35;;;2.38;;
15482;SDS011;7843;50.330;7.312;2022-12-07T07:45:55;4.07;;;2.60;;
15482;SDS011;7843;50.330;7.312;2022-12-07T07:48:21;4.05;;;2.70;;
15482;SDS011;7843;50.330;7.312;2022-12-07T07:50:51;2.97;;;2.25;;
15482;SDS011;7843;50.330;7.312;2022-12-07T07:53:17;4.18;;;2.50;;
15482;SDS011;7843;50.330;7.312;2022-12-07T07:55:53;5.75;;;2.38;;
15482;SDS011;7843;50.330;7.312;2022-12-07T07:58:20;3.97;;;2.70;;
15482;SDS011;7843;50.330;7.312;2022-12-07T08:00:47;4.43;;;2.17;;
15482;SDS011;7843;50.330;7.312;2022-12-07T08:03:14;5.33;;;2.47;;
15482;SDS011;7843;50.330;7.312;2022-12-07T08:05:40;3.90;;;2.17;;
15482;SDS011;7843;50.330;7.312;2022-12-07T08:08:07;4.15;;;2.40;;
15482;SDS011;7843;50.330;7.312;2022-12-07T08:10:34;3.78;;;2.22;;
15482;SDS011;7843;50.330;7.312;2022-12-07T08:13:01;3.30;;;2.00;;
15482;SDS011;7843;50.330;7.312;2022-12-07T08:15:37;4.68;;;2.30;;
15482;SDS011;7843;50.330;7.312;2022-12-07T08:18:05;5.28;;;2.58;;
15482;SDS011;7843;50.330;7.312;2022-12-07T08:20:32;4.30;;;2.45;;
15482;SDS011;7843;50.330;7.312;2022-12-07T08:22:59;3.30;;;2.15;;
15482;SDS011;7843;50.330;7.312;2022-12-07T08:25:26;3.95;;;2.30;;
15482;SDS011;7843;50.330;7.312;2022-12-07T08:27:53;6.53;;;2.78;;
15482;SDS011;7843;50.330;7.312;2022-12-07T08:30:20;4.20;;;2.50;;
15482;SDS011;7843;50.330;7.312;2022-12-07T08:32:48;4.07;;;2.28;;
15482;SDS011;7843;50.330;7.312;2022-12-07T08:35:14;6.07;;;2.47;;
15482;SDS011;7843;50.330;7.312;2022-12-07T08:37:42;4.68;;;2.13;;
15482;SDS011;7843;50.330;7.312;2022-12-07T08:40:10;4.38;;;2.47;;
15482;SDS011;7843;50.330;7.312;2022-12-07T08:42:44;5.75;;;2.42;;
15482;SDS011;7843;50.330;7.312;2022-12-07T08:45:15;5.68;;;3.63;;
15482;SDS011;7843;50.330;7.312;2022-12-07T08:47:46;6.40;;;2.87;;
15482;SDS011;7843;50.330;7.312;2022-12-07T08:50:17;4.90;;;3.35;;
15482;SDS011;7843;50.330;7.312;2022-12-07T08:52:47;7.70;;;2.80;;
15482;SDS011;7843;50.330;7.312;2022-12-07T08:55:16;11.80;;;5.40;;
15482;SDS011;7843;50.330;7.312;2022-12-07T08:57:43;21.57;;;9.10;;
15482;SDS011;7843;50.330;7.312;2022-12-07T09:00:10;25.97;;;16.10;;
15482;SDS011;7843;50.330;7.312;2022-12-07T09:02:37;81.85;;;30.63;;
15482;SDS011;7843;50.330;7.312;2022-12-07T09:05:05;10.25;;;3.38;;
15482;SDS011;7843;50.330;7.312;2022-12-07T09:07:33;8.52;;;3.20;;
15482;SDS011;7843;50.330;7.312;2022-12-07T09:10:00;10.77;;;6.00;;
15482;SDS011;7843;50.330;7.312;2022-12-07T09:12:27;6.05;;;2.45;;
15482;SDS011;7843;50.330;7.312;2022-12-07T09:14:54;6.38;;;3.10;;
15482;SDS011;7843;50.330;7.312;2022-12-07T09:17:21;5.13;;;2.83;;
15482;SDS011;7843;50.330;7.312;2022-12-07T09:19:47;6.37;;;3.37;;
15482;SDS011;7843;50.330;7.312;2022-12-07T09:22:14;4.40;;;2.87;;
15482;SDS011;7843;50.330;7.312;2022-12-07T09:24:41;8.30;;;2.95;;
15482;SDS011;7843;50.330;7.312;2022-12-07T09:27:07;6.45;;;3.08;;
15482;SDS011;7843;50.330;7.312;2022-12-07T09:29:34;5.60;;;3.05;;
15482;SDS011;7843;50.330;7.312;2022-12-07T09:32:00;5.72;;;2.40;;
15482;SDS011;7843;50.330;7.312;2022-12-07T09:34:32;5.97;;;3.28;;
15482;SDS011;7843;50.330;7.312;2022-12-07T09:37:00;6.90;;;2.97;;
15482;SDS011;7843;50.330;7.312;2022-12-07T09:39:27;4.20;;;2.87;;
15482;SDS011;7843;50.330;7.312;2022-12-07T09:41:54;8.67;;;4.07;;
15482;SDS011;7843;50.330;7.312;2022-12-07T09:44:24;5.28;;;2.83;;
15482;SDS011;7843;50.330;7.312;2022-12-07T09:46:52;5.95;;;3.05;;
15482;SDS011;7843;50.330;7.312;2022-12-07T09:49:20;5.50;;;2.70;;
15482;SDS011;7843;50.330;7.312;2022-12-07T09:51:55;9.07;;;3.00;;
15482;SDS011;7843;50.330;7.312;2022-12-07T09:54:44;5.53;;;2.85;;
15482;SDS011;7843;50.330;7.312;2022-12-07T09:57:13;7.63;;;3.08;;
15482;SDS011;7843;50.330;7.312;2022-12-07T09:59:40;6.87;;;2.97;;
15482;SDS011;7843;50.330;7.312;2022-12-07T10:02:22;4.50;;;1.95;;
15482;SDS011;7843;50.330;7.312;2022-12-07T10:04:50;4.40;;;2.00;;
15482;SDS011;7843;50.330;7.312;2022-12-07T10:07:17;4.63;;;1.98;;
15482;SDS011;7843;50.330;7.312;2022-12-07T10:09:43;3.22;;;1.63;;
15482;SDS011;7843;50.330;7.312;2022-12-07T10:12:11;5.55;;;1.60;;
15482;SDS011;7843;50.330;7.312;2022-12-07T10:14:49;3.10;;;1.83;;
15482;SDS011;7843;50.330;7.312;2022-12-07T10:17:37;3.83;;;1.75;;
15482;SDS011;7843;50.330;7.312;2022-12-07T10:20:14;4.38;;;1.88;;
15482;SDS011;7843;50.330;7.312;2022-12-07T10:22:55;4.57;;;1.90;;
15482;SDS011;7843;50.330;7.312;2022-12-07T10:25:28;4.45;;;2.05;;
15482;SDS011;7843;50.330;7.312;2022-12-07T10:28:02;4.35;;;1.80;;
15482;SDS011;7843;50.330;7.312;2022-12-07T10:33:32;4.07;;;1.70;;
15482;SDS011;7843;50.330;7.312;2022-12-07T10:36:33;4.50;;;1.98;;
15482;SDS011;7843;50.330;7.312;2022-12-07T10:39:11;4.87;;;1.70;;
15482;SDS011;7843;50.330;7.312;2022-12-07T10:41:56;3.13;;;1.73;;
15482;SDS011;7843;50.330;7.312;2022-12-07T10:44:26;2.45;;;1.30;;
15482;SDS011;7843;50.330;7.312;2022-12-07T10:49:55;2.53;;;1.67;;
15482;SDS011;7843;50.330;7.312;2022-12-07T10:55:26;3.25;;;1.80;;
15482;SDS011;7843;50.330;7.312;2022-12-07T11:00:51;5.03;;;1.88;;
15482;SDS011;7843;50.330;7.312;2022-12-07T11:09:20;4.95;;;1.63;;
15482;SDS011;7843;50.330;7.312;2022-12-07T11:17:49;4.60;;;1.40;;
15482;SDS011;7843;50.330;7.312;2022-12-07T11:32:10;2.92;;;1.10;;
15482;SDS011;7843;50.330;7.312;2022-12-07T11:35:05;2.40;;;1.02;;
15482;SDS011;7843;50.330;7.312;2022-12-07T11:37:45;3.05;;;1.13;;
15482;SDS011;7843;50.330;7.312;2022-12-07T11:40:33;3.55;;;1.10;;
15482;SDS011;7843;50.330;7.312;2022-12-07T11:43:09;2.80;;;1.00;;
15482;SDS011;7843;50.330;7.312;2022-12-07T11:45:44;4.22;;;1.85;;
15482;SDS011;7843;50.330;7.312;2022-12-07T11:48:34;3.17;;;1.02;;
15482;SDS011;7843;50.330;7.312;2022-12-07T11:51:04;3.83;;;1.30;;
15482;SDS011;7843;50.330;7.312;2022-12-07T11:53:38;4.55;;;1.15;;
15482;SDS011;7843;50.330;7.312;2022-12-07T11:56:14;3.80;;;1.00;;
15482;SDS011;7843;50.330;7.312;2022-12-07T12:21:02;4.82;;;1.77;;
15482;SDS011;7843;50.330;7.312;2022-12-07T12:23:37;4.28;;;1.80;;
15482;SDS011;7843;50.330;7.312;2022-12-07T12:26:48;4.05;;;1.42;;
15482;SDS011;7843;50.330;7.312;2022-12-07T12:29:34;2.10;;;1.13;;
15482;SDS011;7843;50.330;7.312;2022-12-07T12:34:51;1.65;;;1.08;;
15482;SDS011;7843;50.330;7.312;2022-12-07T12:37:47;2.08;;;0.88;;
15482;SDS011;7843;50.330;7.312;2022-12-07T12:42:58;2.03;;;0.63;;
15482;SDS011;7843;50.330;7.312;2022-12-07T12:45:31;1.80;;;0.77;;
15482;SDS011;7843;50.330;7.312;2022-12-07T12:50:35;5.30;;;1.17;;
15482;SDS011;7843;50.330;7.312;2022-12-07T12:53:25;2.88;;;1.10;;
15482;SDS011;7843;50.330;7.312;2022-12-07T12:58:34;2.10;;;0.73;;
15482;SDS011;7843;50.330;7.312;2022-12-07T13:03:54;3.20;;;0.93;;
15482;SDS011;7843;50.330;7.312;2022-12-07T13:08:53;2.30;;;0.82;;
15482;SDS011;7843;50.330;7.312;2022-12-07T13:11:29;1.23;;;0.70;;
15482;SDS011;7843;50.330;7.312;2022-12-07T13:17:03;0.65;;;0.60;;
15482;SDS011;7843;50.330;7.312;2022-12-07T13:25:02;1.90;;;0.60;;
15482;SDS011;7843;50.330;7.312;2022-12-07T13:27:54;2.35;;;0.60;;
15482;SDS011;7843;50.330;7.312;2022-12-07T13:30:26;2.80;;;0.60;;
15482;SDS011;7843;50.330;7.312;2022-12-07T13:32:56;2.80;;;0.70;;
15482;SDS011;7843;50.330;7.312;2022-12-07T13:35:28;2.65;;;0.85;;
15482;SDS011;7843;50.330;7.312;2022-12-07T13:41:00;4.00;;;0.90;;
15482;SDS011;7843;50.330;7.312;2022-12-07T13:43:42;4.07;;;0.77;;
15482;SDS011;7843;50.330;7.312;2022-12-07T13:46:10;1.40;;;0.80;;
15482;SDS011;7843;50.330;7.312;2022-12-07T13:48:47;0.93;;;0.50;;
15482;SDS011;7843;50.330;7.312;2022-12-07T13:51:25;1.38;;;0.70;;
15482;SDS011;7843;50.330;7.312;2022-12-07T13:53:54;1.48;;;0.70;;
15482;SDS011;7843;50.330;7.312;2022-12-07T13:56:31;2.03;;;1.05;;
15482;SDS011;7843;50.330;7.312;2022-12-07T13:59:00;1.83;;;0.60;;
15482;SDS011;7843;50.330;7.312;2022-12-07T14:01:28;4.20;;;0.98;;
15482;SDS011;7843;50.330;7.312;2022-12-07T14:04:16;2.20;;;0.88;;
15482;SDS011;7843;50.330;7.312;2022-12-07T14:06:50;2.22;;;1.00;;
15482;SDS011;7843;50.330;7.312;2022-12-07T14:09:18;3.28;;;0.90;;
15482;SDS011;7843;50.330;7.312;2022-12-07T14:11:48;4.95;;;1.33;;
15482;SDS011;7843;50.330;7.312;2022-12-07T14:14:18;1.00;;;0.70;;
15482;SDS011;7843;50.330;7.312;2022-12-07T14:16:56;1.70;;;0.88;;
15482;SDS011;7843;50.330;7.312;2022-12-07T14:22:22;6.93;;;2.13;;
15482;SDS011;7843;50.330;7.312;2022-12-07T14:25:00;1.83;;;1.00;;
15482;SDS011;7843;50.330;7.312;2022-12-07T14:27:38;2.72;;;0.88;;
15482;SDS011;7843;50.330;7.312;2022-12-07T14:30:16;1.30;;;0.98;;
15482;SDS011;7843;50.330;7.312;2022-12-07T14:32:44;1.83;;;0.90;;
15482;SDS011;7843;50.330;7.312;2022-12-07T14:35:16;2.90;;;1.08;;
15482;SDS011;7843;50.330;7.312;2022-12-07T14:37:44;2.00;;;1.10;;
15482;SDS011;7843;50.330;7.312;2022-12-07T14:40:13;1.80;;;0.95;;
15482;SDS011;7843;50.330;7.312;2022-12-07T14:42:42;2.70;;;0.95;;
15482;SDS011;7843;50.330;7.312;2022-12-07T14:45:13;1.30;;;0.93;;
15482;SDS011;7843;50.330;7.312;2022-12-07T14:47:41;2.97;;;1.10;;
15482;SDS011;7843;50.330;7.312;2022-12-07T14:50:28;3.50;;;1.10;;
15482;SDS011;7843;50.330;7.312;2022-12-07T14:52:56;2.60;;;1.13;;
15482;SDS011;7843;50.330;7.312;2022-12-07T14:55:47;1.65;;;1.10;;
15482;SDS011;7843;50.330;7.312;2022-12-07T14:58:14;2.08;;;1.15;;
15482;SDS011;7843;50.330;7.312;2022-12-07T15:00:42;3.53;;;1.20;;
15482;SDS011;7843;50.330;7.312;2022-12-07T15:03:10;1.80;;;1.05;;
15482;SDS011;7843;50.330;7.312;2022-12-07T15:05:39;5.20;;;1.55;;
15482;SDS011;7843;50.330;7.312;2022-12-07T15:08:08;3.58;;;1.65;;
15482;SDS011;7843;50.330;7.312;2022-12-07T15:10:36;2.58;;;1.17;;
15482;SDS011;7843;50.330;7.312;2022-12-07T15:13:04;2.58;;;1.33;;
15482;SDS011;7843;50.330;7.312;2022-12-07T15:15:51;4.85;;;1.42;;
15482;SDS011;7843;50.330;7.312;2022-12-07T15:18:19;3.28;;;1.00;;
15482;SDS011;7843;50.330;7.312;2022-12-07T15:20:46;4.28;;;1.35;;
15482;SDS011;7843;50.330;7.312;2022-12-07T15:23:13;3.88;;;1.70;;
15482;SDS011;7843;50.330;7.312;2022-12-07T15:25:44;2.83;;;2.05;;
15482;SDS011;7843;50.330;7.312;2022-12-07T15:28:12;6.85;;;1.80;;
15482;SDS011;7843;50.330;7.312;2022-12-07T15:30:40;3.88;;;1.73;;
15482;SDS011;7843;50.330;7.312;2022-12-07T15:33:09;5.40;;;1.65;;
15482;SDS011;7843;50.330;7.312;2022-12-07T15:35:39;3.88;;;1.52;;
15482;SDS011;7843;50.330;7.312;2022-12-07T15:38:06;3.67;;;1.55;;
15482;SDS011;7843;50.330;7.312;2022-12-07T15:40:34;3.60;;;1.50;;
15482;SDS011;7843;50.330;7.312;2022-12-07T15:43:01;2.28;;;1.50;;
15482;SDS011;7843;50.330;7.312;2022-12-07T15:45:28;3.92;;;1.70;;
15482;SDS011;7843;50.330;7.312;2022-12-07T15:47:55;6.22;;;1.60;;
15482;SDS011;7843;50.330;7.312;2022-12-07T15:50:42;2.83;;;1.60;;
15482;SDS011;7843;50.330;7.312;2022-12-07T15:53:09;3.00;;;1.50;;
15482;SDS011;7843;50.330;7.312;2022-12-07T15:55:38;3.42;;;1.92;;
15482;SDS011;7843;50.330;7.312;2022-12-07T15:58:06;5.18;;;1.70;;
15482;SDS011;7843;50.330;7.312;2022-12-07T16:00:33;3.00;;;1.60;;
15482;SDS011;7843;50.330;7.312;2022-12-07T16:02:59;2.65;;;1.73;;
15482;SDS011;7843;50.330;7.312;2022-12-07T16:05:26;4.18;;;1.45;;
15482;SDS011;7843;50.330;7.312;2022-12-07T16:07:53;3.10;;;1.50;;
15482;SDS011;7843;50.330;7.312;2022-12-07T16:10:19;5.32;;;1.70;;
15482;SDS011;7843;50.330;7.312;2022-12-07T16:12:46;2.75;;;1.30;;
15482;SDS011;7843;50.330;7.312;2022-12-07T16:15:13;3.67;;;1.67;;
15482;SDS011;7843;50.330;7.312;2022-12-07T16:17:39;3.10;;;1.30;;
15482;SDS011;7843;50.330;7.312;2022-12-07T16:20:06;2.28;;;1.35;;
15482;SDS011;7843;50.330;7.312;2022-12-07T16:22:34;3.53;;;1.48;;
15482;SDS011;7843;50.330;7.312;2022-12-07T16:25:01;2.90;;;1.70;;
15482;SDS011;7843;50.330;7.312;2022-12-07T16:27:27;4.28;;;1.63;;
15482;SDS011;7843;50.330;7.312;2022-12-07T16:29:54;2.40;;;1.60;;
15482;SDS011;7843;50.330;7.312;2022-12-07T16:32:21;5.07;;;1.85;;
15482;SDS011;7843;50.330;7.312;2022-12-07T16:34:47;2.93;;;1.40;;
15482;SDS011;7843;50.330;7.312;2022-12-07T16:37:14;2.83;;;1.60;;
15482;SDS011;7843;50.330;7.312;2022-12-07T16:39:40;3.83;;;1.80;;
15482;SDS011;7843;50.330;7.312;2022-12-07T16:42:07;2.20;;;1.67;;
15482;SDS011;7843;50.330;7.312;2022-12-07T16:44:34;3.60;;;1.70;;
15482;SDS011;7843;50.330;7.312;2022-12-07T16:47:00;2.78;;;1.60;;
15482;SDS011;7843;50.330;7.312;2022-12-07T16:49:27;2.92;;;1.90;;
15482;SDS011;7843;50.330;7.312;2022-12-07T16:51:54;4.40;;;2.00;;
15482;SDS011;7843;50.330;7.312;2022-12-07T16:54:34;3.55;;;1.92;;
15482;SDS011;7843;50.330;7.312;2022-12-07T16:57:02;5.07;;;1.88;;
15482;SDS011;7843;50.330;7.312;2022-12-07T16:59:28;3.17;;;1.85;;
15482;SDS011;7843;50.330;7.312;2022-12-07T17:01:55;4.18;;;1.85;;
15482;SDS011;7843;50.330;7.312;2022-12-07T17:04:22;3.15;;;2.05;;
15482;SDS011;7843;50.330;7.312;2022-12-07T17:06:48;4.95;;;2.35;;
15482;SDS011;7843;50.330;7.312;2022-12-07T17:09:15;4.18;;;2.40;;
15482;SDS011;7843;50.330;7.312;2022-12-07T17:11:46;3.22;;;1.90;;
15482;SDS011;7843;50.330;7.312;2022-12-07T17:14:12;5.03;;;2.20;;
15482;SDS011;7843;50.330;7.312;2022-12-07T17:16:57;3.58;;;2.00;;
15482;SDS011;7843;50.330;7.312;2022-12-07T17:19:26;4.10;;;1.92;;